createdAt,value
2022-07-28T00:04:55.091Z,1002.38
2022-07-28T00:10:00.140Z,1002.39
2022-07-28T00:14:54.971Z,1002.33
2022-07-28T00:19:54.891Z,1002.35
2022-07-28T00:24:54.835Z,1002.38
2022-07-28T00:29:54.772Z,1002.37
2022-07-28T00:34:54.705Z,1002.40
2022-07-28T00:39:54.650Z,1002.38
2022-07-28T00:44:54.577Z,1002.32
2022-07-28T00:49:54.518Z,1002.27
2022-07-28T00:54:54.448Z,1002.28
2022-07-28T00:59:54.385Z,1002.23
2022-07-28T01:04:54.318Z,1002.23
2022-07-28T01:09:54.244Z,1002.24
2022-07-28T01:14:54.200Z,1002.27
2022-07-28T01:19:54.121Z,1002.34
2022-07-28T01:24:54.068Z,1002.29
2022-07-28T01:29:53.982Z,1002.30
2022-07-28T01:34:53.927Z,1002.22
2022-07-28T01:39:53.868Z,1002.24
2022-07-28T01:44:53.809Z,1002.26
2022-07-28T01:49:53.729Z,1002.21
2022-07-28T01:54:53.909Z,1002.19
2022-07-28T01:59:53.583Z,1002.24
2022-07-28T02:04:53.602Z,1002.23
2022-07-28T02:09:53.454Z,1002.15
2022-07-28T02:14:53.393Z,1002.24
2022-07-28T02:19:53.320Z,1002.29
2022-07-28T02:24:53.275Z,1002.24
2022-07-28T02:29:53.187Z,1002.31
2022-07-28T02:34:53.128Z,1002.30
2022-07-28T02:39:55.286Z,1002.35
2022-07-28T02:44:53.295Z,1002.35
2022-07-28T02:49:53.333Z,1002.32
2022-07-28T02:54:53.219Z,1002.48
2022-07-28T02:59:53.243Z,1002.46
2022-07-28T03:04:52.782Z,1002.47
2022-07-28T03:09:52.669Z,1002.45
2022-07-28T03:14:52.614Z,1002.54
2022-07-28T03:19:52.535Z,1002.53
2022-07-28T03:24:52.478Z,1002.54
2022-07-28T03:29:52.417Z,1002.50
2022-07-28T03:34:52.374Z,1002.54
2022-07-28T03:39:52.303Z,1002.64
2022-07-28T03:44:52.212Z,1002.56
2022-07-28T03:49:52.166Z,1002.59
2022-07-28T03:54:52.104Z,1002.63
2022-07-28T03:59:52.056Z,1002.62
2022-07-28T04:04:51.956Z,1002.71
2022-07-28T04:09:51.908Z,1002.67
2022-07-28T04:14:51.982Z,1002.61
2022-07-28T04:19:52.023Z,1002.59
2022-07-28T04:24:51.902Z,1002.55
2022-07-28T04:29:51.646Z,1002.48
2022-07-28T04:34:51.565Z,1002.51
2022-07-28T04:39:51.515Z,1002.56
2022-07-28T04:44:51.431Z,1002.59
2022-07-28T04:49:51.386Z,1002.57
2022-07-28T04:54:51.301Z,1002.65
2022-07-28T04:59:51.251Z,1002.61
2022-07-28T05:04:51.270Z,1002.61
2022-07-28T05:09:51.119Z,1002.58
2022-07-28T05:14:51.036Z,1002.53
2022-07-28T05:19:50.991Z,1002.53
2022-07-28T05:24:50.932Z,1002.53
2022-07-28T05:29:51.829Z,1002.53
2022-07-28T05:34:50.786Z,1002.51
2022-07-28T05:39:50.732Z,1002.56
2022-07-28T05:44:50.648Z,1002.56
2022-07-28T05:49:50.590Z,1002.63
2022-07-28T05:54:50.527Z,1002.71
2022-07-28T05:59:50.467Z,1002.73
2022-07-28T06:04:50.401Z,1002.75
2022-07-28T06:09:50.324Z,1002.79
2022-07-28T06:14:50.255Z,1002.77
2022-07-28T06:19:50.188Z,1002.74
2022-07-28T06:24:50.123Z,1002.85
2022-07-28T06:29:50.057Z,1002.83
2022-07-28T06:34:49.994Z,1002.74
2022-07-28T06:39:49.934Z,1002.75
2022-07-28T06:44:58.914Z,1002.81
2022-07-28T06:49:49.807Z,1002.82
2022-07-28T06:54:49.726Z,1002.80
2022-07-28T06:59:49.671Z,1002.84
2022-07-28T07:04:49.612Z,1002.80
2022-07-28T07:09:49.542Z,1002.75
2022-07-28T07:14:49.470Z,1002.67
2022-07-28T07:19:49.420Z,1002.64
2022-07-28T07:24:53.566Z,1002.69
2022-07-28T07:29:49.293Z,1002.58
2022-07-28T07:34:49.206Z,1002.57
2022-07-28T07:39:49.142Z,1002.51
2022-07-28T07:44:50.140Z,1002.53
2022-07-28T07:49:49.014Z,1002.50
2022-07-28T07:54:48.947Z,1002.51
2022-07-28T07:59:48.891Z,1002.49
2022-07-28T08:04:48.854Z,1002.43
2022-07-28T08:09:48.759Z,1002.39
2022-07-28T08:14:48.688Z,1002.34
2022-07-28T08:19:48.644Z,1002.28
2022-07-28T08:24:48.564Z,1002.24
2022-07-28T08:29:48.493Z,1002.31
2022-07-28T08:34:48.421Z,1002.25
2022-07-28T08:39:48.373Z,1002.25
2022-07-28T08:44:48.287Z,1002.24
2022-07-28T08:49:48.241Z,1002.27
2022-07-28T08:54:48.161Z,1002.24
2022-07-28T08:59:48.106Z,1002.23
2022-07-28T09:04:48.036Z,1002.23
2022-07-28T09:09:47.993Z,1002.17
2022-07-28T09:14:47.923Z,1002.18
2022-07-28T09:19:47.866Z,1002.20
2022-07-28T09:24:47.799Z,1002.16
2022-07-28T09:29:47.743Z,1002.18
2022-07-28T09:34:47.672Z,1002.20
2022-07-28T09:39:47.601Z,1002.07
2022-07-28T09:45:12.912Z,1002.06
2022-07-28T09:49:48.600Z,1002.08
2022-07-28T09:54:47.397Z,1002.07
2022-07-28T09:59:52.114Z,1001.93
2022-07-28T10:04:47.279Z,1001.93
2022-07-28T10:09:47.217Z,1001.84
2022-07-28T10:14:47.159Z,1001.81
2022-07-28T10:19:47.082Z,1001.75
2022-07-28T10:24:47.011Z,1001.70
2022-07-28T10:29:46.950Z,1001.60
2022-07-28T10:34:46.889Z,1001.54
2022-07-28T10:39:46.827Z,1001.52
2022-07-28T10:44:46.777Z,1001.50
2022-07-28T10:49:48.704Z,1001.49
2022-07-28T10:54:46.623Z,1001.55
2022-07-28T10:59:46.575Z,1001.45
2022-07-28T11:04:46.497Z,1001.50
2022-07-28T11:09:46.444Z,1001.55
2022-07-28T11:14:46.362Z,1001.46
2022-07-28T11:24:47.264Z,1001.43
2022-07-28T11:29:46.184Z,1001.44
2022-07-28T11:34:46.099Z,1001.43
2022-07-28T11:39:46.057Z,1001.33
2022-07-28T11:44:45.967Z,1001.20
2022-07-28T11:49:45.910Z,1001.23
2022-07-28T11:54:45.847Z,1001.19
2022-07-28T11:59:47.114Z,1001.12
2022-07-28T12:04:45.803Z,1001.07
2022-07-28T12:09:45.653Z,1001.10
2022-07-28T12:14:45.585Z,1001.14
2022-07-28T12:19:45.531Z,1001.09
2022-07-28T12:24:46.427Z,1000.95
2022-07-28T12:29:49.350Z,1000.85
2022-07-28T12:34:45.350Z,1000.76
2022-07-28T12:39:45.273Z,1000.82
2022-07-28T12:44:45.203Z,1000.71
2022-07-28T12:49:45.170Z,1000.76
2022-07-28T12:54:53.608Z,1000.71
2022-07-28T12:59:45.034Z,1000.62
2022-07-28T13:04:44.970Z,1000.59
2022-07-28T13:09:44.907Z,1000.49
2022-07-28T13:14:44.843Z,1000.63
2022-07-28T13:19:44.786Z,1000.50
2022-07-28T13:24:44.723Z,1000.50
2022-07-28T13:29:44.664Z,1000.49
2022-07-28T13:34:44.586Z,1000.39
2022-07-28T13:39:44.534Z,1000.33
2022-07-28T13:44:44.469Z,1000.26
2022-07-28T13:49:44.408Z,1000.26
2022-07-28T13:54:44.334Z,1000.32
2022-07-28T13:59:44.378Z,1000.25
2022-07-28T14:04:45.910Z,1000.21
2022-07-28T14:09:44.156Z,1000.14
2022-07-28T14:14:48.037Z,1000.16
2022-07-28T14:19:44.027Z,1000.17
2022-07-28T14:24:43.969Z,1000.02
2022-07-28T14:29:43.907Z,1000.03
2022-07-28T14:34:43.834Z,1000.01
2022-07-28T14:39:43.784Z,999.95
2022-07-28T14:44:43.702Z,999.93
2022-07-28T14:49:57.754Z,999.93
2022-07-28T14:54:44.607Z,999.97
2022-07-28T14:59:43.535Z,1000.05
2022-07-28T15:04:43.451Z,999.93
2022-07-28T15:09:47.402Z,999.87
2022-07-28T15:14:43.348Z,999.97
2022-07-28T15:19:43.336Z,999.90
2022-07-28T15:24:45.060Z,999.90
2022-07-28T15:29:43.535Z,999.88
2022-07-28T15:34:43.086Z,999.83
2022-07-28T15:39:45.185Z,999.77
2022-07-28T15:44:42.966Z,999.74
2022-07-28T15:49:42.918Z,999.77
2022-07-28T15:54:42.839Z,999.66
2022-07-28T15:59:49.941Z,999.67
2022-07-28T16:04:52.270Z,999.67
2022-07-28T16:09:45.366Z,999.63
2022-07-28T16:14:42.593Z,999.59
2022-07-28T16:19:50.607Z,999.62
2022-07-28T16:24:42.466Z,999.59
2022-07-28T16:29:42.415Z,999.58
2022-07-28T16:34:42.342Z,999.54
2022-07-28T16:39:42.293Z,999.51
2022-07-28T16:44:42.213Z,999.53
2022-07-28T16:49:45.763Z,999.54
2022-07-28T16:54:42.090Z,999.57
2022-07-28T16:59:48.317Z,999.52
2022-07-28T17:04:42.149Z,999.54
2022-07-28T17:09:41.910Z,999.47
2022-07-28T17:14:41.842Z,999.48
2022-07-28T17:19:45.122Z,999.46
2022-07-28T17:24:41.718Z,999.42
2022-07-28T17:29:41.653Z,999.47
2022-07-28T17:34:41.702Z,999.47
2022-07-28T17:39:41.529Z,999.49
2022-07-28T17:44:41.471Z,999.49
2022-07-28T17:49:45.366Z,999.52
2022-07-28T17:54:41.347Z,999.51
2022-07-28T17:59:51.542Z,999.47
2022-07-28T18:04:41.234Z,999.48
2022-07-28T18:09:41.158Z,999.50
2022-07-28T18:14:41.092Z,999.46
2022-07-28T18:19:45.352Z,999.47
2022-07-28T18:24:40.966Z,999.43
2022-07-28T18:29:40.917Z,999.43
2022-07-28T18:34:40.842Z,999.38
2022-07-28T18:39:40.787Z,999.40
2022-07-28T18:44:41.506Z,999.46
2022-07-28T18:49:40.748Z,999.46
2022-07-28T18:54:40.587Z,999.47
2022-07-28T18:59:45.495Z,999.46
2022-07-28T19:04:40.458Z,999.56
2022-07-28T19:09:40.404Z,999.55
2022-07-28T19:14:40.335Z,999.62
2022-07-28T19:19:40.251Z,999.73
2022-07-28T19:24:40.212Z,999.83
2022-07-28T19:29:40.160Z,999.90
2022-07-28T19:34:40.076Z,999.90
2022-07-28T19:39:43.803Z,999.94
2022-07-28T19:44:39.938Z,999.95
2022-07-28T19:49:39.873Z,999.98
2022-07-28T19:54:39.818Z,999.99
2022-07-28T19:59:39.737Z,999.96
2022-07-28T20:04:39.696Z,1000.02
2022-07-28T20:09:39.608Z,1000.04
2022-07-28T20:14:39.550Z,999.98
2022-07-28T20:19:39.488Z,1000.00
2022-07-28T20:24:39.434Z,1000.05
2022-07-28T20:29:39.373Z,1000.04
2022-07-28T20:34:39.292Z,1000.10
2022-07-28T20:39:44.887Z,1000.12
2022-07-28T20:44:39.164Z,1000.11
2022-07-28T20:49:39.079Z,1000.16
2022-07-28T20:54:39.028Z,1000.25
2022-07-28T20:59:38.964Z,1000.27
2022-07-28T21:04:38.907Z,1000.37
2022-07-28T21:09:38.829Z,1000.40
2022-07-28T21:14:38.976Z,1000.37
2022-07-28T21:19:38.929Z,1000.33
2022-07-28T21:24:38.653Z,1000.35
2022-07-28T21:29:38.570Z,1000.34
2022-07-28T21:34:38.510Z,1000.31
2022-07-28T21:39:38.431Z,1000.36
2022-07-28T21:44:38.402Z,1000.46
2022-07-28T21:49:38.305Z,1000.42
2022-07-28T21:54:38.247Z,1000.39
2022-07-28T21:59:38.165Z,1000.47
2022-07-28T22:04:38.191Z,1000.57
2022-07-28T22:09:38.193Z,1000.67
2022-07-28T22:14:37.979Z,1000.77
2022-07-28T22:19:37.902Z,1000.79
2022-07-28T22:24:37.843Z,1000.77
2022-07-28T22:29:37.762Z,1000.79
2022-07-28T22:34:37.711Z,1000.87
2022-07-28T22:39:37.638Z,1000.98
2022-07-28T22:44:37.795Z,1000.94
2022-07-28T22:49:37.499Z,1000.89
2022-07-28T22:54:37.432Z,1000.96
2022-07-28T22:59:38.676Z,1001.07
2022-07-28T23:04:37.327Z,1001.12
2022-07-28T23:09:37.248Z,1001.10
2022-07-28T23:14:37.178Z,1000.98
2022-07-28T23:19:37.121Z,1000.88
2022-07-28T23:24:37.065Z,1001.04
2022-07-28T23:29:36.990Z,1001.06
2022-07-28T23:34:36.934Z,1000.97
2022-07-28T23:39:36.862Z,1001.01
2022-07-28T23:44:36.800Z,1000.99
2022-07-28T23:49:36.738Z,1000.91
2022-07-28T23:54:36.682Z,1000.89
2022-07-28T23:59:36.610Z,1000.73
